Terminal Aerodrome Forecast
Issued by NWS

Home | Current Version | Previous Version | Text Only | Print | Product List | Glossary On
Versions: 1 2 3 4 5 6 7 8 9 10 11 12 13 14 15 16 17 18 19 20 21 22 23 24 25
000
FTUS44 KLIX 241100
TAFHUM
TAF
KHUM 241120Z 2412/2512 18004KT 5SM BR SKC
     FM241700 17008KT P6SM SCT250
     FM241800 17009KT P6SM BKN050
     FM250900 23005KT 2SM BR BKN003=

USA.gov is the U.S. government's official web portal to all federal, state and local government web resources and services.